^^
Saratoga-Weather Station Historical Data
Daily Summary for November 28, 2020 Units:  Both    English   Metric
Daily Weekly Monthly Yearly Custom
  High: Low: Average:
Temperature: 41.2 °F /  5.1 °C 32.5 °F /  0.3 °C 35.2 °F /  1.8 °C
Dew Point: 39 °F /  3.9 °C 31.8 °F /  -0.1 °C 34.5 °F /  1.4 °C
Humidity: 98% 92% 97%
Wind Speed: 4mph /  6.4km/h - 0.8mph /  1.3km/h
Wind Gust: 8mph /  12.9km/h - -
Wind- - East
Pressure: 30.1 in /  1019.3 hPa 30.1 in /  1017.6 hPa -
Precipitation: 0.01 in /  0.2 mm    
Historical Graphs
 
 
Tabular Data for November 28, 2020
Time Temperature Dew Point Pressure Wind Wind Speed Wind Gust Humidity Rainfall Rate (Hourly) solar
00:00 35.4 °F /  1.9 °C 34.7 °F /  1.5 °C 30.1in /  1019.0hPa Calm     97% 0in /  0.0mm 0 W/m2
00:05 35.2 °F /  1.8 °C 34.5 °F /  1.4 °C 30.1in /  1019.0hPa Calm     97% 0in /  0.0mm 0 W/m2
00:10 35.1 °F /  1.7 °C 34.3 °F /  1.3 °C 30.1in /  1019.0hPa Calm     97% 0in /  0.0mm 0 W/m2
00:15 35.1 °F /  1.7 °C 34.3 °F /  1.3 °C 30.1in /  1019.0hPa Calm     97% 0in /  0.0mm 0 W/m2
00:20 34.9 °F /  1.6 °C 34.2 °F /  1.2 °C 30.1in /  1019.0hPa Calm     97% 0in /  0.0mm 0 W/m2
00:25 34.7 °F /  1.5 °C 34 °F /  1.1 °C 30.1in /  1019.0hPa Calm     97% 0in /  0.0mm 0 W/m2
00:30 34.7 °F /  1.5 °C 34 °F /  1.1 °C 30.1in /  1019.0hPa Calm     97% 0in /  0.0mm 0 W/m2
00:35 34.5 °F /  1.4 °C 33.8 °F /  1 °C 30.1in /  1019.0hPa Calm     97% 0in /  0.0mm 0 W/m2
00:40 34.3 °F /  1.3 °C 33.6 °F /  0.9 °C 30.1in /  1019.0hPa Calm     97% 0in /  0.0mm 0 W/m2
00:45 34.2 °F /  1.2 °C 33.4 °F /  0.8 °C 30.1in /  1019.0hPa Calm     97% 0in /  0.0mm 0 W/m2
00:50 34.2 °F /  1.2 °C 33.4 °F /  0.8 °C 30.1in /  1019.0hPa Calm     97% 0in /  0.0mm 0 W/m2
00:55 34 °F /  1.1 °C 33.3 °F /  0.7 °C 30.1in /  1019.0hPa Calm     97% 0in /  0.0mm 0 W/m2
01:00 34 °F /  1.1 °C 33.3 °F /  0.7 °C 30.1in /  1019.0hPa Calm     97% 0in /  0.0mm 0 W/m2
01:05 33.8 °F /  1 °C 33.1 °F /  0.6 °C 30.1in /  1019.0hPa Calm     97% 0in /  0.0mm 0 W/m2
01:10 33.6 °F /  0.9 °C 32.9 °F /  0.5 °C 30.1in /  1019.0hPa Calm     97% 0in /  0.0mm 0 W/m2
01:15 33.6 °F /  0.9 °C 32.9 °F /  0.5 °C 30.1in /  1018.6hPa Calm     97% 0in /  0.0mm 0 W/m2
01:20 33.6 °F /  0.9 °C 32.9 °F /  0.5 °C 30.1in /  1018.6hPa Calm   1mph /  1.6km/h 97% 0in /  0.0mm 0 W/m2
01:25 33.8 °F /  1 °C 33.1 °F /  0.6 °C 30.1in /  1018.6hPa Calm     97% 0in /  0.0mm 0 W/m2
01:30 33.8 °F /  1 °C 33.1 °F /  0.6 °C 30.1in /  1018.6hPa Calm     97% 0in /  0.0mm 0 W/m2
01:35 33.6 °F /  0.9 °C 32.9 °F /  0.5 °C 30.1in /  1018.6hPa Calm     97% 0in /  0.0mm 0 W/m2
01:40 33.4 °F /  0.8 °C 32.7 °F /  0.4 °C 30.1in /  1018.6hPa Calm     97% 0in /  0.0mm 0 W/m2
01:45 33.3 °F /  0.7 °C 32.5 °F /  0.3 °C 30.1in /  1018.6hPa Calm     97% 0in /  0.0mm 0 W/m2
01:51 33.1 °F /  0.6 °C 32.4 °F /  0.2 °C 30.1in /  1018.6hPa Calm     97% 0in /  0.0mm 0 W/m2
01:56 33.1 °F /  0.6 °C 32.4 °F /  0.2 °C 30.1in /  1018.6hPa Calm     97% 0in /  0.0mm 0 W/m2
02:01 33.1 °F /  0.6 °C 32.4 °F /  0.2 °C 30.1in /  1018.6hPa Calm     97% 0in /  0.0mm 0 W/m2
02:06 33.1 °F /  0.6 °C 32.4 °F /  0.2 °C 30.1in /  1018.6hPa Calm     97% 0in /  0.0mm 0 W/m2
02:11 33.1 °F /  0.6 °C 32.4 °F /  0.2 °C 30.1in /  1018.6hPa Calm     97% 0in /  0.0mm 0 W/m2
02:16 33.3 °F /  0.7 °C 32.5 °F /  0.3 °C 30.1in /  1018.6hPa Calm     97% 0in /  0.0mm 0 W/m2
02:21 33.3 °F /  0.7 °C 32.5 °F /  0.3 °C 30.1in /  1018.6hPa Calm     97% 0in /  0.0mm 0 W/m2
02:26 33.3 °F /  0.7 °C 32.5 °F /  0.3 °C 30.1in /  1018.6hPa Calm     97% 0in /  0.0mm 0 W/m2
02:31 33.4 °F /  0.8 °C 32.7 °F /  0.4 °C 30.1in /  1018.6hPa Calm     97% 0in /  0.0mm 0 W/m2
02:36 33.3 °F /  0.7 °C 32.5 °F /  0.3 °C 30.1in /  1018.6hPa Calm     97% 0in /  0.0mm 0 W/m2
02:41 33.3 °F /  0.7 °C 32.5 °F /  0.3 °C 30.1in /  1018.6hPa Calm     97% 0in /  0.0mm 0 W/m2
02:46 33.3 °F /  0.7 °C 32.5 °F /  0.3 °C 30.1in /  1018.6hPa Calm     97% 0in /  0.0mm 0 W/m2
02:51 33.4 °F /  0.8 °C 32.7 °F /  0.4 °C 30.1in /  1018.6hPa East 0.9mph /  1.4km/h 3mph /  4.8km/h 97% 0in /  0.0mm 0 W/m2
02:56 33.4 °F /  0.8 °C 32.7 °F /  0.4 °C 30.1in /  1018.6hPa East 0.9mph /  1.4km/h 2mph /  3.2km/h 97% 0in /  0.0mm 0 W/m2
03:01 33.4 °F /  0.8 °C 32.7 °F /  0.4 °C 30.1in /  1018.6hPa Calm   3mph /  4.8km/h 97% 0in /  0.0mm 0 W/m2
03:06 33.3 °F /  0.7 °C 32.5 °F /  0.3 °C 30.1in /  1018.6hPa ESE 2mph /  3.2km/h 2mph /  3.2km/h 97% 0in /  0.0mm 0 W/m2
03:11 33.3 °F /  0.7 °C 32.5 °F /  0.3 °C 30.1in /  1018.6hPa Calm   1mph /  1.6km/h 97% 0in /  0.0mm 0 W/m2
03:16 33.1 °F /  0.6 °C 32.4 °F /  0.2 °C 30.1in /  1018.6hPa Calm   1mph /  1.6km/h 97% 0in /  0.0mm 0 W/m2
03:21 32.9 °F /  0.5 °C 32.2 °F /  0.1 °C 30.1in /  1018.6hPa Calm     97% 0in /  0.0mm 0 W/m2
03:26 32.7 °F /  0.4 °C 32 °F /  0 °C 30.1in /  1018.6hPa Calm   1mph /  1.6km/h 97% 0in /  0.0mm 0 W/m2
03:31 32.5 °F /  0.3 °C 31.8 °F /  -0.1 °C 30.1in /  1018.6hPa Calm   1mph /  1.6km/h 97% 0in /  0.0mm 0 W/m2
03:36 32.5 °F /  0.3 °C 31.8 °F /  -0.1 °C 30.1in /  1018.6hPa Calm   1mph /  1.6km/h 97% 0in /  0.0mm 0 W/m2
03:41 32.5 °F /  0.3 °C 31.8 °F /  -0.1 °C 30.1in /  1018.6hPa Calm     97% 0in /  0.0mm 0 W/m2
03:46 32.5 °F /  0.3 °C 31.8 °F /  -0.1 °C 30.1in /  1018.6hPa Calm     97% 0in /  0.0mm 0 W/m2
03:51 32.5 °F /  0.3 °C 31.8 °F /  -0.1 °C 30.1in /  1018.6hPa Calm   1mph /  1.6km/h 97% 0in /  0.0mm 0 W/m2
03:56 32.7 °F /  0.4 °C 32 °F /  0 °C 30.1in /  1018.6hPa ESE 0.9mph /  1.4km/h 2mph /  3.2km/h 97% 0in /  0.0mm 0 W/m2
04:01 32.9 °F /  0.5 °C 32.2 °F /  0.1 °C 30.1in /  1018.3hPa Calm     97% 0in /  0.0mm 0 W/m2
04:06 33.1 °F /  0.6 °C 32.4 °F /  0.2 °C 30.1in /  1018.3hPa ESE 0.9mph /  1.4km/h 2mph /  3.2km/h 97% 0in /  0.0mm 0 W/m2
04:11 33.3 °F /  0.7 °C 32.5 °F /  0.3 °C 30.1in /  1018.3hPa Calm   2mph /  3.2km/h 97% 0in /  0.0mm 0 W/m2
04:16 33.3 °F /  0.7 °C 32.5 °F /  0.3 °C 30.1in /  1018.3hPa Calm     97% 0in /  0.0mm 0 W/m2
04:21 33.4 °F /  0.8 °C 32.7 °F /  0.4 °C 30.1in /  1018.3hPa East 0.9mph /  1.4km/h 3mph /  4.8km/h 97% 0in /  0.0mm 0 W/m2
04:26 33.4 °F /  0.8 °C 32.7 °F /  0.4 °C 30.1in /  1018.3hPa East 0.9mph /  1.4km/h 1mph /  1.6km/h 97% 0in /  0.0mm 0 W/m2
04:31 33.6 °F /  0.9 °C 33.1 °F /  0.6 °C 30.1in /  1018.3hPa ENE 0.9mph /  1.4km/h 3mph /  4.8km/h 98% 0in /  0.0mm 0 W/m2
04:36 33.6 °F /  0.9 °C 33.1 °F /  0.6 °C 30.1in /  1018.3hPa Calm   2mph /  3.2km/h 98% 0in /  0.0mm 0 W/m2
04:41 33.8 °F /  1 °C 33.3 °F /  0.7 °C 30.1in /  1018.3hPa Calm   2mph /  3.2km/h 98% 0in /  0.0mm 0 W/m2
04:46 33.8 °F /  1 °C 33.1 °F /  0.6 °C 30.1in /  1018.3hPa ENE 0.9mph /  1.4km/h 1mph /  1.6km/h 97% 0in /  0.0mm 0 W/m2
04:51 34 °F /  1.1 °C 33.3 °F /  0.7 °C 30.1in /  1018.3hPa Calm   2mph /  3.2km/h 97% 0in /  0.0mm 0 W/m2
04:56 34 °F /  1.1 °C 33.3 °F /  0.7 °C 30.1in /  1018.3hPa Calm     97% 0in /  0.0mm 0 W/m2
05:01 34 °F /  1.1 °C 33.3 °F /  0.7 °C 30.1in /  1018.3hPa Calm     97% 0in /  0.0mm 0 W/m2
05:06 34 °F /  1.1 °C 33.3 °F /  0.7 °C 30.1in /  1018.3hPa Calm     97% 0in /  0.0mm 0 W/m2
05:11 34 °F /  1.1 °C 33.3 °F /  0.7 °C 30.1in /  1018.3hPa Calm   1mph /  1.6km/h 97% 0in /  0.0mm 0 W/m2
05:16 34 °F /  1.1 °C 33.3 °F /  0.7 °C 30.1in /  1018.3hPa Calm     97% 0in /  0.0mm 0 W/m2
05:21 34.2 °F /  1.2 °C 33.6 °F /  0.9 °C 30.1in /  1018.3hPa ESE 2.9mph /  4.7km/h 4mph /  6.4km/h 98% 0in /  0.0mm 0 W/m2
05:26 34.2 °F /  1.2 °C 33.6 °F /  0.9 °C 30.1in /  1018.3hPa SE 2.9mph /  4.7km/h 4mph /  6.4km/h 98% 0in /  0.0mm 0 W/m2
05:31 34.2 °F /  1.2 °C 33.6 °F /  0.9 °C 30.1in /  1018.3hPa ENE 4mph /  6.4km/h 8mph /  12.9km/h 98% 0in /  0.0mm 0 W/m2
05:36 34 °F /  1.1 °C 33.3 °F /  0.7 °C 30.1in /  1018.3hPa NE 2mph /  3.2km/h 4mph /  6.4km/h 97% 0in /  0.0mm 0 W/m2
05:41 34 °F /  1.1 °C 33.3 °F /  0.7 °C 30.1in /  1018.3hPa ENE 0.9mph /  1.4km/h 3mph /  4.8km/h 97% 0in /  0.0mm 0 W/m2
05:46 33.8 °F /  1 °C 33.1 °F /  0.6 °C 30.1in /  1018.3hPa ENE 0.9mph /  1.4km/h 2mph /  3.2km/h 97% 0in /  0.0mm 0 W/m2
05:51 33.8 °F /  1 °C 33.3 °F /  0.7 °C 30.1in /  1018.3hPa NE 0.9mph /  1.4km/h 3mph /  4.8km/h 98% 0in /  0.0mm 0 W/m2
05:56 33.8 °F /  1 °C 33.1 °F /  0.6 °C 30.1in /  1018.3hPa NE 2.9mph /  4.7km/h 3mph /  4.8km/h 97% 0in /  0.0mm 0 W/m2
06:01 33.8 °F /  1 °C 33.1 °F /  0.6 °C 30.1in /  1018.3hPa NE 0.9mph /  1.4km/h 3mph /  4.8km/h 97% 0in /  0.0mm 0 W/m2
06:06 33.8 °F /  1 °C 33.1 °F /  0.6 °C 30.1in /  1018.3hPa ENE 0.9mph /  1.4km/h 2mph /  3.2km/h 97% 0in /  0.0mm 0 W/m2
06:11 33.8 °F /  1 °C 33.1 °F /  0.6 °C 30.1in /  1018.3hPa ENE 2.9mph /  4.7km/h 3mph /  4.8km/h 97% 0in /  0.0mm 0 W/m2
06:16 33.8 °F /  1 °C 33.1 °F /  0.6 °C 30.1in /  1018.6hPa Calm   2mph /  3.2km/h 97% 0in /  0.0mm 0 W/m2
06:21 33.8 °F /  1 °C 33.3 °F /  0.7 °C 30.1in /  1018.3hPa NE 2mph /  3.2km/h 2mph /  3.2km/h 98% 0in /  0.0mm 0 W/m2
06:26 33.8 °F /  1 °C 33.1 °F /  0.6 °C 30.1in /  1018.6hPa ENE 0.9mph /  1.4km/h 1mph /  1.6km/h 97% 0in /  0.0mm 0 W/m2
06:31 33.8 °F /  1 °C 33.1 °F /  0.6 °C 30.1in /  1018.6hPa Calm   4mph /  6.4km/h 97% 0in /  0.0mm 0 W/m2
06:36 33.8 °F /  1 °C 33.1 °F /  0.6 °C 30.1in /  1018.6hPa ENE 2mph /  3.2km/h 2mph /  3.2km/h 97% 0in /  0.0mm 0 W/m2
06:41 33.8 °F /  1 °C 33.1 °F /  0.6 °C 30.1in /  1018.6hPa Calm   2mph /  3.2km/h 97% 0in /  0.0mm 0 W/m2
06:46 34 °F /  1.1 °C 33.3 °F /  0.7 °C 30.1in /  1018.6hPa NE 2mph /  3.2km/h 3mph /  4.8km/h 97% 0in /  0.0mm 0 W/m2
06:51 34 °F /  1.1 °C 33.3 °F /  0.7 °C 30.1in /  1018.6hPa ENE 2mph /  3.2km/h 3mph /  4.8km/h 97% 0in /  0.0mm 0 W/m2
06:56 34 °F /  1.1 °C 33.3 °F /  0.7 °C 30.1in /  1018.6hPa NE 0.9mph /  1.4km/h 3mph /  4.8km/h 97% 0in /  0.0mm 0 W/m2
07:01 33.8 °F /  1 °C 33.3 °F /  0.7 °C 30.1in /  1018.6hPa East 0.9mph /  1.4km/h 4mph /  6.4km/h 98% 0in /  0.0mm 0 W/m2
07:06 33.8 °F /  1 °C 33.1 °F /  0.6 °C 30.1in /  1018.6hPa NE 0.9mph /  1.4km/h 2mph /  3.2km/h 97% 0in /  0.0mm 0 W/m2
07:11 33.8 °F /  1 °C 33.1 °F /  0.6 °C 30.1in /  1018.6hPa ENE 0.9mph /  1.4km/h 2mph /  3.2km/h 97% 0in /  0.0mm 0 W/m2
07:16 33.8 °F /  1 °C 33.1 °F /  0.6 °C 30.1in /  1018.6hPa ENE 0.9mph /  1.4km/h 2mph /  3.2km/h 97% 0in /  0.0mm 0 W/m2
07:21 34 °F /  1.1 °C 33.3 °F /  0.7 °C 30.1in /  1018.6hPa ENE 2.9mph /  4.7km/h 3mph /  4.8km/h 97% 0in /  0.0mm 0 W/m2
07:26 33.8 °F /  1 °C 33.1 °F /  0.6 °C 30.1in /  1019.0hPa ENE 4mph /  6.4km/h 5mph /  8km/h 97% 0in /  0.0mm 0 W/m2
07:31 33.8 °F /  1 °C 33.1 °F /  0.6 °C 30.1in /  1018.6hPa ENE 0.9mph /  1.4km/h 3mph /  4.8km/h 97% 0in /  0.0mm 0 W/m2
07:36 33.8 °F /  1 °C 33.3 °F /  0.7 °C 30.1in /  1018.6hPa ENE 2mph /  3.2km/h 4mph /  6.4km/h 98% 0in /  0.0mm 0 W/m2
07:41 33.8 °F /  1 °C 33.3 °F /  0.7 °C 30.1in /  1018.6hPa NE 2mph /  3.2km/h 4mph /  6.4km/h 98% 0in /  0.0mm 0 W/m2
07:46 33.8 °F /  1 °C 33.3 °F /  0.7 °C 30.1in /  1018.6hPa East 2mph /  3.2km/h 2mph /  3.2km/h 98% 0in /  0.0mm 0 W/m2
07:51 33.8 °F /  1 °C 33.1 °F /  0.6 °C 30.1in /  1018.6hPa Calm   1mph /  1.6km/h 97% 0in /  0.0mm 0 W/m2
07:56 33.8 °F /  1 °C 33.1 °F /  0.6 °C 30.1in /  1019.0hPa ENE 2mph /  3.2km/h 2mph /  3.2km/h 97% 0in /  0.0mm 0 W/m2
08:01 33.8 °F /  1 °C 33.1 °F /  0.6 °C 30.1in /  1019.0hPa NE 2.9mph /  4.7km/h 6mph /  9.7km/h 97% 0in /  0.0mm 0 W/m2
08:06 33.8 °F /  1 °C 33.3 °F /  0.7 °C 30.1in /  1019.0hPa ENE 2.9mph /  4.7km/h 5mph /  8km/h 98% 0in /  0.0mm 0 W/m2
08:11 33.6 °F /  0.9 °C 33.1 °F /  0.6 °C 30.1in /  1019.0hPa ENE 2mph /  3.2km/h 2mph /  3.2km/h 98% 0in /  0.0mm 0 W/m2
08:16 33.8 °F /  1 °C 33.3 °F /  0.7 °C 30.1in /  1019.0hPa Calm   3mph /  4.8km/h 98% 0in /  0.0mm 0 W/m2
08:21 33.8 °F /  1 °C 33.3 °F /  0.7 °C 30.1in /  1019.0hPa East 2mph /  3.2km/h 3mph /  4.8km/h 98% 0in /  0.0mm 0 W/m2
08:26 33.8 °F /  1 °C 33.3 °F /  0.7 °C 30.1in /  1019.0hPa ENE 2.9mph /  4.7km/h 3mph /  4.8km/h 98% 0in /  0.0mm 5 W/m2
08:31 33.8 °F /  1 °C 33.3 °F /  0.7 °C 30.1in /  1019.0hPa ENE 0.9mph /  1.4km/h 5mph /  8km/h 98% 0in /  0.0mm 5 W/m2
08:36 33.8 °F /  1 °C 33.3 °F /  0.7 °C 30.1in /  1019.0hPa SE 0.9mph /  1.4km/h 3mph /  4.8km/h 98% 0in /  0.0mm 7 W/m2
08:41 34 °F /  1.1 °C 33.4 °F /  0.8 °C 30.1in /  1019.0hPa ENE 2.9mph /  4.7km/h 5mph /  8km/h 98% 0in /  0.0mm 9 W/m2
08:46 34 °F /  1.1 °C 33.4 °F /  0.8 °C 30.1in /  1019.0hPa Calm   2mph /  3.2km/h 98% 0in /  0.0mm 9 W/m2
08:51 34 °F /  1.1 °C 33.4 °F /  0.8 °C 30.1in /  1019.0hPa ENE 0.9mph /  1.4km/h 4mph /  6.4km/h 98% 0in /  0.0mm 16 W/m2
08:56 34 °F /  1.1 °C 33.4 °F /  0.8 °C 30.1in /  1019.0hPa NE 0.9mph /  1.4km/h 3mph /  4.8km/h 98% 0in /  0.0mm 14 W/m2
09:01 34 °F /  1.1 °C 33.4 °F /  0.8 °C 30.1in /  1019.0hPa NE 0.9mph /  1.4km/h 3mph /  4.8km/h 98% 0in /  0.0mm 19 W/m2
09:06 34 °F /  1.1 °C 33.4 °F /  0.8 °C 30.1in /  1019.0hPa ENE 2mph /  3.2km/h 3mph /  4.8km/h 98% 0in /  0.0mm 14 W/m2
09:11 34 °F /  1.1 °C 33.4 °F /  0.8 °C 30.1in /  1019.0hPa Calm   3mph /  4.8km/h 98% 0in /  0.0mm 21 W/m2
09:16 34 °F /  1.1 °C 33.4 °F /  0.8 °C 30.1in /  1019.3hPa ENE 2mph /  3.2km/h 6mph /  9.7km/h 98% 0in /  0.0mm 21 W/m2
09:21 34 °F /  1.1 °C 33.4 °F /  0.8 °C 30.1in /  1019.3hPa NE 2mph /  3.2km/h 5mph /  8km/h 98% 0in /  0.0mm 28 W/m2
09:26 34 °F /  1.1 °C 33.4 °F /  0.8 °C 30.1in /  1019.3hPa ENE 2mph /  3.2km/h 4mph /  6.4km/h 98% 0in /  0.0mm 37 W/m2
09:31 34 °F /  1.1 °C 33.4 °F /  0.8 °C 30.1in /  1019.3hPa NE 2.9mph /  4.7km/h 5mph /  8km/h 98% 0in /  0.0mm 30 W/m2
09:36 34 °F /  1.1 °C 33.4 °F /  0.8 °C 30.1in /  1019.3hPa ESE 0.9mph /  1.4km/h 4mph /  6.4km/h 98% 0.01in /  0.2mm 32 W/m2
09:42 34 °F /  1.1 °C 33.4 °F /  0.8 °C 30.1in /  1019.3hPa NE 2.9mph /  4.7km/h 4mph /  6.4km/h 98% 0.01in /  0.2mm 44 W/m2
09:47 34 °F /  1.1 °C 33.4 °F /  0.8 °C 30.1in /  1019.3hPa ESE 0.9mph /  1.4km/h 2mph /  3.2km/h 98% 0.01in /  0.2mm 42 W/m2
09:52 34.2 °F /  1.2 °C 33.6 °F /  0.9 °C 30.1in /  1019.3hPa East 2.9mph /  4.7km/h 4mph /  6.4km/h 98% 0.01in /  0.2mm 51 W/m2
09:57 34.2 °F /  1.2 °C 33.6 °F /  0.9 °C 30.1in /  1019.3hPa Calm   1mph /  1.6km/h 98% 0.01in /  0.2mm 46 W/m2
10:02 34.3 °F /  1.3 °C 33.8 °F /  1 °C 30.1in /  1019.3hPa NE 2.9mph /  4.7km/h 4mph /  6.4km/h 98% 0.01in /  0.2mm 47 W/m2
10:07 34.3 °F /  1.3 °C 33.8 °F /  1 °C 30.1in /  1019.3hPa ENE 2mph /  3.2km/h 4mph /  6.4km/h 98% 0.01in /  0.2mm 56 W/m2
10:12 34.3 °F /  1.3 °C 33.8 °F /  1 °C 30.1in /  1019.3hPa ENE 2mph /  3.2km/h 3mph /  4.8km/h 98% 0.01in /  0.2mm 53 W/m2
10:17 34.3 °F /  1.3 °C 33.8 °F /  1 °C 30.1in /  1019.3hPa Calm   3mph /  4.8km/h 98% 0.01in /  0.2mm 56 W/m2
10:22 34.3 °F /  1.3 °C 33.8 °F /  1 °C 30.1in /  1019.3hPa ESE 0.9mph /  1.4km/h 2mph /  3.2km/h 98% 0.01in /  0.2mm 56 W/m2
10:27 34.5 °F /  1.4 °C 34 °F /  1.1 °C 30.1in /  1019.3hPa Calm   4mph /  6.4km/h 98% 0.01in /  0.2mm 60 W/m2
10:35 34.7 °F /  1.5 °C 34.2 °F /  1.2 °C 30.1in /  1019.3hPa ENE 2.9mph /  4.7km/h 4mph /  6.4km/h 98% 0in /  0.0mm 67 W/m2
10:40 34.7 °F /  1.5 °C 34.2 °F /  1.2 °C 30.1in /  1019.3hPa ENE 0.9mph /  1.4km/h 3mph /  4.8km/h 98% 0in /  0.0mm 67 W/m2
10:45 34.7 °F /  1.5 °C 34.2 °F /  1.2 °C 30.1in /  1019.3hPa East 4mph /  6.4km/h 4mph /  6.4km/h 98% 0in /  0.0mm 72 W/m2
10:50 34.9 °F /  1.6 °C 34.3 °F /  1.3 °C 30.1in /  1019.3hPa Calm   5mph /  8km/h 98% 0in /  0.0mm 63 W/m2
10:55 34.9 °F /  1.6 °C 34.3 °F /  1.3 °C 30.1in /  1019.3hPa ENE 2mph /  3.2km/h 4mph /  6.4km/h 98% 0in /  0.0mm 93 W/m2
11:00 34.9 °F /  1.6 °C 34.3 °F /  1.3 °C 30.1in /  1019.3hPa ENE 2mph /  3.2km/h 5mph /  8km/h 98% 0in /  0.0mm 79 W/m2
11:05 35.1 °F /  1.7 °C 34.5 °F /  1.4 °C 30.1in /  1019.3hPa ENE 0.9mph /  1.4km/h 3mph /  4.8km/h 98% 0in /  0.0mm 105 W/m2
11:14 35.1 °F /  1.7 °C 34.5 °F /  1.4 °C 30.1in /  1019.3hPa East 2mph /  3.2km/h 3mph /  4.8km/h 98% 0in /  0.0mm 91 W/m2
11:19 35.1 °F /  1.7 °C 34.5 °F /  1.4 °C 30.1in /  1019.3hPa NE 2mph /  3.2km/h 4mph /  6.4km/h 98% 0in /  0.0mm 88 W/m2
11:24 35.1 °F /  1.7 °C 34.5 °F /  1.4 °C 30.1in /  1019.0hPa Calm     98% 0in /  0.0mm 86 W/m2
11:29 35.2 °F /  1.8 °C 34.7 °F /  1.5 °C 30.1in /  1019.0hPa NE 2mph /  3.2km/h 4mph /  6.4km/h 98% 0in /  0.0mm 144 W/m2
11:34 35.4 °F /  1.9 °C 34.9 °F /  1.6 °C 30.1in /  1019.0hPa ESE 2mph /  3.2km/h 3mph /  4.8km/h 98% 0in /  0.0mm 62 W/m2
11:39 35.8 °F /  2.1 °C 35.2 °F /  1.8 °C 30.1in /  1019.0hPa East 2mph /  3.2km/h 4mph /  6.4km/h 98% 0in /  0.0mm 104 W/m2
11:44 36 °F /  2.2 °C 35.4 °F /  1.9 °C 30.1in /  1019.0hPa NNW 0.9mph /  1.4km/h 2mph /  3.2km/h 98% 0in /  0.0mm 69 W/m2
11:49 36 °F /  2.2 °C 35.4 °F /  1.9 °C 30.1in /  1019.0hPa ENE 2mph /  3.2km/h 3mph /  4.8km/h 98% 0in /  0.0mm 98 W/m2
11:54 36 °F /  2.2 °C 35.4 °F /  1.9 °C 30.1in /  1019.0hPa East 0.9mph /  1.4km/h 5mph /  8km/h 98% 0in /  0.0mm 51 W/m2
11:59 36 °F /  2.2 °C 35.4 °F /  1.9 °C 30.1in /  1019.0hPa Calm   1mph /  1.6km/h 98% 0in /  0.0mm 53 W/m2
12:04 36 °F /  2.2 °C 35.4 °F /  1.9 °C 30.1in /  1019.0hPa ENE 0.9mph /  1.4km/h 5mph /  8km/h 98% 0in /  0.0mm 49 W/m2
12:09 36.1 °F /  2.3 °C 35.6 °F /  2 °C 30.1in /  1018.6hPa East 2.9mph /  4.7km/h 6mph /  9.7km/h 98% 0in /  0.0mm 37 W/m2
12:14 36.3 °F /  2.4 °C 35.8 °F /  2.1 °C 30.1in /  1018.6hPa Calm   3mph /  4.8km/h 98% 0in /  0.0mm 47 W/m2
12:19 36.7 °F /  2.6 °C 36.1 °F /  2.3 °C 30.1in /  1018.6hPa NE 4mph /  6.4km/h 4mph /  6.4km/h 98% 0in /  0.0mm 40 W/m2
12:24 36.9 °F /  2.7 °C 36.3 °F /  2.4 °C 30.1in /  1019.0hPa North 2.9mph /  4.7km/h 4mph /  6.4km/h 98% 0in /  0.0mm 42 W/m2
12:29 36.9 °F /  2.7 °C 36.3 °F /  2.4 °C 30.1in /  1019.0hPa Calm   3mph /  4.8km/h 98% 0in /  0.0mm 47 W/m2
12:34 36.9 °F /  2.7 °C 36.1 °F /  2.3 °C 30.1in /  1018.6hPa Calm   2mph /  3.2km/h 97% 0in /  0.0mm 47 W/m2
12:39 37 °F /  2.8 °C 36.5 °F /  2.5 °C 30.1in /  1018.6hPa WNW 0.9mph /  1.4km/h 3mph /  4.8km/h 98% 0in /  0.0mm 40 W/m2
12:44 37 °F /  2.8 °C 36.3 °F /  2.4 °C 30.1in /  1018.6hPa ENE 2mph /  3.2km/h 3mph /  4.8km/h 97% 0in /  0.0mm 42 W/m2
12:49 37 °F /  2.8 °C 36.3 °F /  2.4 °C 30.1in /  1018.6hPa North 0.9mph /  1.4km/h 1mph /  1.6km/h 97% 0in /  0.0mm 37 W/m2
12:54 37.2 °F /  2.9 °C 36.5 °F /  2.5 °C 30.1in /  1018.6hPa ENE 2mph /  3.2km/h 2mph /  3.2km/h 97% 0in /  0.0mm 33 W/m2
12:59 37.2 °F /  2.9 °C 36.5 °F /  2.5 °C 30.1in /  1018.3hPa SE 2mph /  3.2km/h 3mph /  4.8km/h 97% 0in /  0.0mm 32 W/m2
13:04 37.6 °F /  3.1 °C 36.9 °F /  2.7 °C 30.1in /  1018.3hPa Calm   3mph /  4.8km/h 97% 0in /  0.0mm 30 W/m2
13:09 37.8 °F /  3.2 °C 37 °F /  2.8 °C 30.1in /  1018.3hPa ESE 0.9mph /  1.4km/h 2mph /  3.2km/h 97% 0in /  0.0mm 30 W/m2
13:14 37.9 °F /  3.3 °C 37.2 °F /  2.9 °C 30.1in /  1018.3hPa Calm   3mph /  4.8km/h 97% 0in /  0.0mm 32 W/m2
13:19 38.1 °F /  3.4 °C 37.4 °F /  3 °C 30.1in /  1018.3hPa Calm   4mph /  6.4km/h 97% 0in /  0.0mm 30 W/m2
13:24 38.5 °F /  3.6 °C 37.8 °F /  3.2 °C 30.1in /  1018.3hPa WSW 2mph /  3.2km/h 2mph /  3.2km/h 97% 0in /  0.0mm 30 W/m2
13:29 38.7 °F /  3.7 °C 37.6 °F /  3.1 °C 30.1in /  1018.3hPa Calm   1mph /  1.6km/h 96% 0in /  0.0mm 30 W/m2
13:34 38.8 °F /  3.8 °C 37.8 °F /  3.2 °C 30.1in /  1018.3hPa Calm   1mph /  1.6km/h 96% 0in /  0.0mm 32 W/m2
13:39 39 °F /  3.9 °C 37.9 °F /  3.3 °C 30.1in /  1018.3hPa Calm   1mph /  1.6km/h 96% 0in /  0.0mm 30 W/m2
13:44 39.2 °F /  4 °C 38.1 °F /  3.4 °C 30.1in /  1018.0hPa Calm   3mph /  4.8km/h 96% 0in /  0.0mm 28 W/m2
13:49 39.6 °F /  4.2 °C 38.5 °F /  3.6 °C 30.1in /  1018.3hPa Calm   2mph /  3.2km/h 96% 0in /  0.0mm 26 W/m2
13:54 39.7 °F /  4.3 °C 38.5 °F /  3.6 °C 30.1in /  1018.3hPa Calm   3mph /  4.8km/h 95% 0in /  0.0mm 26 W/m2
13:59 39.9 °F /  4.4 °C 38.7 °F /  3.7 °C 30.1in /  1018.0hPa Calm   1mph /  1.6km/h 95% 0in /  0.0mm 26 W/m2
14:04 40.1 °F /  4.5 °C 38.8 °F /  3.8 °C 30.1in /  1018.0hPa WNW 2mph /  3.2km/h 2mph /  3.2km/h 95% 0in /  0.0mm 26 W/m2
14:10 39.9 °F /  4.4 °C 38.3 °F /  3.5 °C 30.1in /  1018.0hPa SSW 0.9mph /  1.4km/h 2mph /  3.2km/h 94% 0in /  0.0mm 25 W/m2
14:15 39.9 °F /  4.4 °C 38.3 °F /  3.5 °C 30.1in /  1018.0hPa Calm     94% 0in /  0.0mm 25 W/m2
14:20 39.7 °F /  4.3 °C 38.1 °F /  3.4 °C 30.1in /  1018.0hPa Calm     94% 0in /  0.0mm 25 W/m2
14:25 40.1 °F /  4.5 °C 38.5 °F /  3.6 °C 30.1in /  1018.0hPa ENE 2mph /  3.2km/h 3mph /  4.8km/h 94% 0in /  0.0mm 23 W/m2
14:30 40.6 °F /  4.8 °C 39 °F /  3.9 °C 30.1in /  1018.0hPa Calm   2mph /  3.2km/h 94% 0in /  0.0mm 23 W/m2
14:35 40.8 °F /  4.9 °C 39 °F /  3.9 °C 30.1in /  1018.0hPa SW 0.9mph /  1.4km/h 1mph /  1.6km/h 93% 0in /  0.0mm 23 W/m2
14:40 40.8 °F /  4.9 °C 38.7 °F /  3.7 °C 30.1in /  1018.0hPa Calm   2mph /  3.2km/h 92% 0in /  0.0mm 23 W/m2
14:45 40.8 °F /  4.9 °C 39 °F /  3.9 °C 30.1in /  1017.6hPa East 0.9mph /  1.4km/h 3mph /  4.8km/h 93% 0in /  0.0mm 21 W/m2
14:50 41.2 °F /  5.1 °C 39 °F /  3.9 °C 30.1in /  1018.0hPa Calm   1mph /  1.6km/h 92% 0in /  0.0mm 21 W/m2
14:55 40.8 °F /  4.9 °C 38.7 °F /  3.7 °C 30.1in /  1018.0hPa Calm   3mph /  4.8km/h 92% 0in /  0.0mm 21 W/m2
15:00 40.6 °F /  4.8 °C 38.5 °F /  3.6 °C 30.1in /  1018.0hPa Calm     92% 0in /  0.0mm 21 W/m2
15:05 40.5 °F /  4.7 °C 38.3 °F /  3.5 °C 30.1in /  1018.0hPa Calm     92% 0in /  0.0mm 21 W/m2
15:10 40.5 °F /  4.7 °C 38.3 °F /  3.5 °C 30.1in /  1018.0hPa Calm     92% 0in /  0.0mm 21 W/m2
15:15 40.3 °F /  4.6 °C 38.1 °F /  3.4 °C 30.1in /  1018.0hPa Calm     92% 0in /  0.0mm 19 W/m2
15:20 39.9 °F /  4.4 °C 37.8 °F /  3.2 °C 30.1in /  1018.0hPa ESE 2mph /  3.2km/h 2mph /  3.2km/h 92% 0in /  0.0mm 19 W/m2
15:25 39.7 °F /  4.3 °C 37.9 °F /  3.3 °C 30.1in /  1018.0hPa Calm   2mph /  3.2km/h 93% 0in /  0.0mm 19 W/m2
15:30 39.7 °F /  4.3 °C 37.9 °F /  3.3 °C 30.1in /  1018.0hPa Calm   1mph /  1.6km/h 93% 0in /  0.0mm 18 W/m2
15:35 39.7 °F /  4.3 °C 38.1 °F /  3.4 °C 30.1in /  1018.0hPa Calm   2mph /  3.2km/h 94% 0in /  0.0mm 18 W/m2
15:40 39.7 °F /  4.3 °C 38.1 °F /  3.4 °C 30.1in /  1018.0hPa SSW 0.9mph /  1.4km/h 3mph /  4.8km/h 94% 0in /  0.0mm 18 W/m2
15:45 39.7 °F /  4.3 °C 38.1 °F /  3.4 °C 30.1in /  1018.0hPa Calm   3mph /  4.8km/h 94% 0in /  0.0mm 16 W/m2
15:50 39.7 °F /  4.3 °C 38.1 °F /  3.4 °C 30.1in /  1018.0hPa Calm     94% 0in /  0.0mm 16 W/m2
15:55 39.9 °F /  4.4 °C 38.3 °F /  3.5 °C 30.1in /  1018.0hPa Calm   3mph /  4.8km/h 94% 0in /  0.0mm 14 W/m2
16:00 39.9 °F /  4.4 °C 38.3 °F /  3.5 °C 30.1in /  1018.0hPa Calm     94% 0in /  0.0mm 14 W/m2
16:05 40.1 °F /  4.5 °C 38.5 °F /  3.6 °C 30.1in /  1018.0hPa Calm     94% 0in /  0.0mm 12 W/m2
16:10 39.9 °F /  4.4 °C 38.3 °F /  3.5 °C 30.1in /  1018.0hPa Calm     94% 0in /  0.0mm 12 W/m2
16:15 39.7 °F /  4.3 °C 37.9 °F /  3.3 °C 30.1in /  1018.0hPa Calm     93% 0in /  0.0mm 11 W/m2
16:20 39.7 °F /  4.3 °C 37.9 °F /  3.3 °C 30.1in /  1018.0hPa Calm     93% 0in /  0.0mm 11 W/m2
Juneau County Weather
Compliments of Weather Underground - 2 mb